Time;durP1;ratioP1;P1;durP2;ratioP2;P2;SDS_P1;SDS_P2;PMS_P1;PMS_P2;Temp;Humidity;BMP_temperature;BMP_pressure;BME280_temperature;BME280_humidity;BME280_pressure;Samples;Min_cycle;Max_cycle;Signal;HPM_P1;HPM_P2
2023/04/15 00:01:17;;;;;;;0.87;0.87;;;22.60;52.90;;;;;;5030676;28;20532;-75
2023/04/15 00:03:46;;;;;;;1.20;1.20;;;22.50;52.90;;;;;;5024334;28;20467;-74
2023/04/15 00:06:14;;;;;;;1.23;1.23;;;22.50;53.00;;;;;;5030043;28;20530;-74
2023/04/15 00:08:43;;;;;;;0.80;0.80;;;22.50;53.00;;;;;;5030308;28;20558;-73
2023/04/15 00:11:11;;;;;;;1.13;0.90;;;22.50;53.00;;;;;;5011110;28;20554;-74
2023/04/15 00:13:41;;;;;;;2.10;1.17;;;22.50;53.00;;;;;;5031209;28;20455;-74
2023/04/15 00:16:10;;;;;;;1.20;1.10;;;22.50;53.00;;;;;;5031685;28;20458;-74
2023/04/15 00:18:38;;;;;;;1.00;0.90;;;22.50;53.00;;;;;;5033892;28;20513;-74
2023/04/15 00:21:06;;;;;;;1.23;1.13;;;22.50;53.00;;;;;;5029242;28;20550;-74
2023/04/15 00:23:35;;;;;;;1.17;1.07;;;22.50;53.00;;;;;;5025978;28;20524;-74
2023/04/15 00:26:03;;;;;;;0.70;0.70;;;22.50;53.00;;;;;;5033113;28;20447;-74
2023/04/15 00:28:32;;;;;;;0.97;0.97;;;22.50;53.00;;;;;;5033032;28;20907;-74
2023/04/15 00:31:02;;;;;;;1.00;1.00;;;22.50;53.00;;;;;;5016430;28;20490;-74
2023/04/15 00:33:30;;;;;;;1.23;1.00;;;22.50;53.00;;;;;;5033607;28;20464;-74
2023/04/15 00:35:58;;;;;;;1.00;1.00;;;22.50;53.00;;;;;;5011596;28;20513;-75
2023/04/15 00:38:27;;;;;;;1.43;1.07;;;22.50;53.00;;;;;;5028082;28;20454;-74
2023/04/15 00:40:56;;;;;;;0.97;0.87;;;22.40;53.00;;;;;;5019146;28;20948;-74
2023/04/15 00:43:25;;;;;;;1.20;1.10;;;22.40;53.00;;;;;;5015026;28;20459;-74
2023/04/15 00:45:54;;;;;;;1.30;1.20;;;22.40;53.00;;;;;;5016118;28;20462;-75
2023/04/15 00:48:25;;;;;;;1.67;1.07;;;22.40;53.00;;;;;;5033334;28;20474;-75
2023/04/15 00:50:53;;;;;;;1.13;1.07;;;22.40;53.00;;;;;;5033710;28;20456;-75
2023/04/15 00:53:21;;;;;;;1.10;1.00;;;22.40;53.00;;;;;;5033267;28;20454;-74
2023/04/15 00:55:50;;;;;;;1.07;1.00;;;22.40;53.00;;;;;;5004861;28;20468;-74
2023/04/15 00:58:19;;;;;;;1.10;1.00;;;22.40;53.00;;;;;;5033077;28;20440;-74
2023/04/15 01:00:48;;;;;;;0.93;0.93;;;22.40;53.00;;;;;;5033115;28;20859;-74
2023/04/15 01:03:16;;;;;;;2.03;1.10;;;22.40;53.00;;;;;;5015045;28;20455;-74
2023/04/15 01:05:46;;;;;;;0.90;0.90;;;22.40;53.10;;;;;;5032840;28;20450;-73
2023/04/15 01:08:14;;;;;;;2.70;0.87;;;22.40;53.10;;;;;;5032945;28;20478;-74
2023/04/15 01:10:43;;;;;;;1.40;1.30;;;22.40;53.10;;;;;;5015294;28;20498;-72
2023/04/15 01:13:11;;;;;;;0.97;0.90;;;22.40;53.10;;;;;;5032224;28;20489;-73
2023/04/15 01:15:40;;;;;;;0.87;0.87;;;22.40;53.10;;;;;;5014171;28;21031;-72
2023/04/15 01:18:09;;;;;;;1.43;1.20;;;22.40;53.10;;;;;;5031485;28;20446;-72
2023/04/15 01:20:38;;;;;;;1.07;1.00;;;22.40;53.10;;;;;;5031957;28;21008;-72
2023/04/15 01:23:08;;;;;;;0.83;0.83;;;22.30;53.10;;;;;;5032455;28;20479;-74
2023/04/15 01:25:37;;;;;;;1.17;1.07;;;22.30;53.10;;;;;;5031210;28;20510;-74
2023/04/15 01:28:06;;;;;;;0.93;0.93;;;22.30;53.10;;;;;;5032845;28;20449;-74
2023/04/15 01:30:34;;;;;;;1.00;0.97;;;22.30;53.10;;;;;;5013173;28;20478;-73
2023/04/15 01:33:03;;;;;;;1.00;0.90;;;22.30;53.10;;;;;;5032112;28;20485;-74
2023/04/15 01:35:32;;;;;;;1.27;1.17;;;22.30;53.10;;;;;;5032793;28;20447;-74
2023/04/15 01:38:06;;;;;;;1.47;1.37;;;22.30;53.10;;;;;;5014269;28;20483;-74
2023/04/15 01:40:34;;;;;;;0.90;0.90;;;22.30;53.10;;;;;;5032546;28;20517;-74
2023/04/15 01:43:04;;;;;;;1.60;1.07;;;22.30;53.10;;;;;;5031474;28;20540;-74
2023/04/15 01:45:32;;;;;;;1.10;1.00;;;22.30;53.10;;;;;;5007460;28;20471;-74
2023/04/15 01:48:00;;;;;;;1.20;1.10;;;22.30;53.10;;;;;;5029229;28;20977;-74
2023/04/15 01:50:29;;;;;;;1.27;1.17;;;22.30;53.10;;;;;;5032186;28;21021;-75
2023/04/15 01:52:57;;;;;;;1.17;1.07;;;22.20;53.10;;;;;;5031851;28;20543;-74
2023/04/15 01:55:25;;;;;;;1.20;1.10;;;22.20;53.10;;;;;;5014762;28;20451;-75
2023/04/15 01:57:54;;;;;;;1.27;1.17;;;22.20;53.20;;;;;;5013756;28;21126;-75
2023/04/15 02:00:23;;;;;;;1.63;1.50;;;22.20;53.10;;;;;;5013393;28;20557;-75
2023/04/15 02:02:52;;;;;;;1.10;1.00;;;22.20;53.20;;;;;;5023813;28;20479;-74
2023/04/15 02:05:21;;;;;;;1.10;1.03;;;22.20;53.20;;;;;;5029338;28;20455;-75
2023/04/15 02:07:49;;;;;;;1.40;1.00;;;22.20;53.20;;;;;;5032547;28;20958;-74
2023/04/15 02:10:17;;;;;;;0.70;0.70;;;22.20;53.20;;;;;;5010473;28;20478;-75
2023/04/15 02:12:45;;;;;;;1.27;1.17;;;22.20;53.20;;;;;;5018062;28;20471;-74
2023/04/15 02:15:14;;;;;;;0.93;0.93;;;22.20;53.20;;;;;;5026529;28;20455;-75
2023/04/15 02:17:49;;;;;;;0.80;0.80;;;22.20;53.20;;;;;;5029064;28;20458;-74
2023/04/15 02:20:19;;;;;;;1.00;1.00;;;22.20;53.20;;;;;;5011625;28;20460;-75
2023/04/15 02:22:48;;;;;;;1.40;1.30;;;22.20;53.20;;;;;;5008543;28;20454;-75
2023/04/15 02:25:16;;;;;;;1.30;1.20;;;22.10;53.20;;;;;;5028116;28;20551;-75
2023/04/15 02:27:45;;;;;;;0.83;0.83;;;22.10;53.20;;;;;;5031541;28;20457;-74
2023/04/15 02:30:13;;;;;;;0.80;0.80;;;22.10;53.20;;;;;;5002689;28;20553;-75
2023/04/15 02:32:43;;;;;;;0.80;0.80;;;22.10;53.20;;;;;;5013992;28;21230;-75
2023/04/15 02:35:12;;;;;;;0.87;0.87;;;22.10;53.20;;;;;;5030544;28;20481;-74
2023/04/15 02:37:42;;;;;;;0.87;0.87;;;22.10;53.30;;;;;;5030839;28;20922;-75
2023/04/15 02:40:12;;;;;;;1.03;1.03;;;22.10;53.30;;;;;;5021330;28;20993;-74
2023/04/15 02:42:41;;;;;;;0.80;0.80;;;22.10;53.30;;;;;;5014896;28;20462;-75
2023/04/15 02:45:12;;;;;;;0.90;0.90;;;22.10;53.30;;;;;;5017598;28;20488;-75
2023/04/15 02:47:44;;;;;;;0.97;0.80;;;22.10;53.30;;;;;;5013337;28;20459;-74
2023/04/15 02:50:14;;;;;;;0.97;0.97;;;22.10;53.30;;;;;;5031352;28;20519;-75
2023/04/15 02:52:43;;;;;;;1.30;1.20;;;22.10;53.30;;;;;;5013834;28;20491;-74
2023/04/15 02:55:12;;;;;;;1.00;0.97;;;22.10;53.30;;;;;;5009074;28;20450;-73
2023/04/15 02:57:40;;;;;;;1.03;0.93;;;22.10;53.30;;;;;;5028076;28;20463;-74
2023/04/15 03:00:11;;;;;;;1.03;1.03;;;22.10;53.30;;;;;;5043537;28;20459;-74
2023/04/15 03:02:44;;;;;;;1.07;1.00;;;22.00;53.30;;;;;;5013123;28;20863;-73
2023/04/15 03:05:14;;;;;;;1.07;1.07;;;22.00;53.30;;;;;;5030470;28;20450;-74
2023/04/15 03:07:48;;;;;;;0.90;0.90;;;22.00;53.30;;;;;;5013492;28;20947;-73
2023/04/15 03:10:16;;;;;;;1.07;0.93;;;22.00;53.30;;;;;;5012119;28;20545;-73
2023/04/15 03:12:46;;;;;;;0.87;0.87;;;22.00;53.30;;;;;;5013064;28;20867;-74
2023/04/15 03:15:18;;;;;;;0.90;0.90;;;22.00;53.30;;;;;;5012061;28;20544;-74
2023/04/15 03:17:51;;;;;;;0.80;0.80;;;22.00;53.30;;;;;;5012478;28;20481;-74
2023/04/15 03:20:19;;;;;;;0.90;0.80;;;22.00;53.30;;;;;;5030166;28;21280;-74
2023/04/15 03:22:48;;;;;;;1.07;1.07;;;22.00;53.30;;;;;;5030493;28;20458;-74
2023/04/15 03:25:18;;;;;;;1.00;0.90;;;22.00;53.30;;;;;;5011499;28;20474;-75
2023/04/15 03:27:47;;;;;;;0.80;0.80;;;22.00;53.30;;;;;;5029787;28;20550;-75
2023/04/15 03:30:15;;;;;;;1.13;1.03;;;22.00;53.40;;;;;;5012550;28;20528;-74
2023/04/15 03:32:43;;;;;;;1.00;1.00;;;22.00;53.40;;;;;;5013287;28;20478;-74
2023/04/15 03:35:13;;;;;;;1.40;1.03;;;22.00;53.40;;;;;;5029739;28;20994;-73
2023/04/15 03:37:41;;;;;;;0.60;0.60;;;22.00;53.40;;;;;;5029853;28;20586;-73
2023/04/15 03:40:10;;;;;;;1.20;1.10;;;21.90;53.40;;;;;;5030429;28;20464;-73
2023/04/15 03:42:38;;;;;;;0.70;0.70;;;21.90;53.40;;;;;;5031737;28;20545;-73
2023/04/15 03:45:07;;;;;;;1.17;1.03;;;21.90;53.50;;;;;;5030078;28;20452;-73
2023/04/15 03:47:35;;;;;;;0.73;0.73;;;21.90;53.50;;;;;;5032010;28;20451;-72
2023/04/15 03:50:04;;;;;;;0.80;0.80;;;21.90;53.50;;;;;;5034505;28;20493;-72
2023/04/15 03:52:33;;;;;;;0.97;0.97;;;21.90;53.50;;;;;;5034439;28;20477;-73
2023/04/15 03:55:02;;;;;;;1.10;0.80;;;22.00;53.50;;;;;;5016250;28;20502;-72
2023/04/15 03:57:30;;;;;;;0.63;0.63;;;22.00;53.50;;;;;;5017254;28;20475;-73
2023/04/15 03:59:58;;;;;;;0.77;0.77;;;22.00;53.50;;;;;;5020022;28;20977;-72
2023/04/15 04:02:27;;;;;;;0.90;0.90;;;22.10;53.50;;;;;;5034278;28;20630;-72
2023/04/15 04:04:55;;;;;;;0.87;0.87;;;22.10;53.50;;;;;;5007341;28;20801;-72
2023/04/15 04:07:24;;;;;;;0.80;0.80;;;22.20;53.40;;;;;;5032200;28;20505;-72
2023/04/15 04:09:53;;;;;;;1.07;1.03;;;22.20;53.40;;;;;;5033484;28;20453;-72
2023/04/15 04:12:21;;;;;;;1.13;0.80;;;22.30;53.30;;;;;;5028874;28;20497;-73
2023/04/15 04:14:50;;;;;;;0.77;0.77;;;22.40;53.30;;;;;;5030569;28;20532;-73
2023/04/15 04:17:18;;;;;;;0.80;0.80;;;22.40;53.20;;;;;;5032409;28;20463;-73
2023/04/15 04:19:46;;;;;;;0.87;0.83;;;22.50;53.20;;;;;;5029920;28;20884;-74
2023/04/15 04:22:14;;;;;;;0.90;0.90;;;22.60;53.10;;;;;;5016597;28;20600;-73
2023/04/15 04:24:42;;;;;;;1.00;0.90;;;22.60;52.90;;;;;;5033621;28;20537;-74
2023/04/15 04:27:12;;;;;;;0.97;0.80;;;22.70;52.80;;;;;;5011750;28;21337;-75
2023/04/15 04:29:40;;;;;;;0.77;0.77;;;22.80;52.70;;;;;;5014075;28;20520;-74
2023/04/15 04:32:08;;;;;;;0.93;0.83;;;22.80;52.70;;;;;;5032304;28;20477;-75
2023/04/15 04:34:37;;;;;;;0.83;0.70;;;22.80;52.60;;;;;;5033650;28;20462;-74
2023/04/15 04:37:05;;;;;;;1.30;1.20;;;22.80;52.60;;;;;;5003052;28;20634;-74
2023/04/15 04:39:33;;;;;;;1.23;1.03;;;22.80;52.60;;;;;;5021027;28;20454;-74
2023/04/15 04:42:01;;;;;;;0.77;0.77;;;22.80;52.50;;;;;;5034193;28;20916;-74
2023/04/15 04:44:31;;;;;;;1.00;0.73;;;22.70;52.60;;;;;;5033302;28;20459;-74
2023/04/15 04:46:59;;;;;;;0.73;0.73;;;22.70;52.60;;;;;;5033811;28;20444;-74
2023/04/15 04:49:27;;;;;;;1.00;0.80;;;22.70;52.60;;;;;;5015517;28;20816;-74
2023/04/15 04:51:57;;;;;;;0.80;0.80;;;22.70;52.70;;;;;;5033231;28;20469;-74
2023/04/15 04:54:26;;;;;;;0.80;0.80;;;22.60;52.70;;;;;;5033423;28;20534;-74
2023/04/15 04:56:54;;;;;;;1.07;1.00;;;22.60;52.80;;;;;;5033198;28;20460;-74
2023/04/15 04:59:22;;;;;;;0.73;0.73;;;22.50;52.80;;;;;;5030137;28;20482;-75
2023/04/15 05:01:52;;;;;;;0.93;0.67;;;22.50;52.90;;;;;;5012072;28;20470;-76
2023/04/15 05:04:20;;;;;;;0.90;0.90;;;22.50;52.90;;;;;;5032984;28;20447;-74
2023/04/15 05:06:48;;;;;;;0.80;0.80;;;22.50;52.90;;;;;;5015081;28;20904;-74
2023/04/15 05:09:16;;;;;;;0.63;0.63;;;22.40;53.00;;;;;;5033329;28;20457;-74
2023/04/15 05:11:44;;;;;;;0.77;0.67;;;22.40;53.10;;;;;;5031835;28;20479;-74
2023/04/15 05:14:13;;;;;;;1.20;1.10;;;22.40;53.10;;;;;;5014951;28;20480;-74
2023/04/15 05:16:41;;;;;;;1.03;1.00;;;22.30;53.10;;;;;;5032972;28;20542;-74
2023/04/15 05:19:11;;;;;;;0.83;0.83;;;22.30;53.20;;;;;;5032969;28;20538;-75
2023/04/15 05:21:39;;;;;;;1.73;1.13;;;22.30;53.20;;;;;;5014971;28;20563;-75
2023/04/15 05:24:07;;;;;;;1.17;1.10;;;22.20;53.30;;;;;;5032873;28;20454;-75
2023/04/15 05:26:35;;;;;;;0.90;0.80;;;22.20;53.30;;;;;;5031615;28;20795;-74
2023/04/15 05:29:04;;;;;;;1.00;1.00;;;22.20;53.30;;;;;;5031395;28;20466;-74
2023/04/15 05:31:32;;;;;;;1.13;1.03;;;22.20;53.30;;;;;;5032417;28;20506;-74
2023/04/15 05:34:00;;;;;;;0.77;0.77;;;22.20;53.30;;;;;;5032726;28;20461;-74
2023/04/15 05:36:30;;;;;;;1.27;1.17;;;22.20;53.40;;;;;;5032402;28;20528;-76
2023/04/15 05:38:58;;;;;;;0.83;0.83;;;22.20;53.40;;;;;;5032496;28;20856;-75
2023/04/15 05:41:27;;;;;;;0.67;0.67;;;22.20;53.40;;;;;;5032734;28;20464;-75
2023/04/15 05:43:55;;;;;;;0.90;0.90;;;22.20;53.40;;;;;;5031569;28;20988;-75
2023/04/15 05:46:23;;;;;;;0.90;0.90;;;22.20;53.40;;;;;;5027894;28;20956;-74
2023/04/15 05:48:51;;;;;;;1.00;0.90;;;22.30;53.30;;;;;;5041648;28;20449;-74
2023/04/15 05:51:22;;;;;;;0.90;0.80;;;22.30;53.30;;;;;;5030972;28;20991;-74
2023/04/15 05:53:51;;;;;;;0.80;0.70;;;22.30;53.30;;;;;;5012683;28;20489;-75
2023/04/15 05:56:20;;;;;;;1.20;1.10;;;22.30;53.20;;;;;;5013250;28;20479;-75
2023/04/15 05:58:48;;;;;;;0.80;0.80;;;22.40;53.20;;;;;;5029961;28;20482;-76
2023/04/15 06:01:18;;;;;;;0.90;0.90;;;22.40;53.20;;;;;;5007361;28;20467;-75
2023/04/15 06:03:47;;;;;;;0.80;0.80;;;22.40;53.20;;;;;;5031232;28;20498;-75
2023/04/15 06:06:16;;;;;;;1.07;1.07;;;22.40;53.10;;;;;;5028771;28;20461;-75
2023/04/15 06:08:44;;;;;;;1.70;1.20;;;22.40;53.10;;;;;;5032163;28;20461;-74
2023/04/15 06:11:13;;;;;;;0.87;0.87;;;22.40;53.10;;;;;;5029424;28;20483;-74
2023/04/15 06:13:41;;;;;;;1.00;0.90;;;22.40;53.10;;;;;;5031368;28;20548;-75
2023/04/15 06:16:10;;;;;;;1.00;0.80;;;22.40;53.10;;;;;;5030206;28;20450;-74
2023/04/15 06:18:39;;;;;;;0.90;0.90;;;22.40;53.10;;;;;;5031389;28;20455;-75
2023/04/15 06:21:07;;;;;;;1.20;1.10;;;22.40;53.10;;;;;;5031941;28;20450;-74
2023/04/15 06:23:35;;;;;;;0.70;0.70;;;22.40;53.10;;;;;;5030334;28;20456;-73
2023/04/15 06:26:04;;;;;;;0.73;0.73;;;22.40;53.10;;;;;;5022353;28;20452;-72
2023/04/15 06:28:33;;;;;;;1.27;1.03;;;22.40;53.10;;;;;;5030931;28;20560;-72
2023/04/15 06:31:01;;;;;;;0.80;0.80;;;22.40;53.10;;;;;;5031777;28;20541;-72
2023/04/15 06:33:30;;;;;;;0.80;0.80;;;22.40;53.10;;;;;;5031392;28;20972;-73
2023/04/15 06:35:59;;;;;;;0.90;0.90;;;22.40;53.10;;;;;;5011557;28;20500;-73
2023/04/15 06:38:27;;;;;;;0.90;0.90;;;22.40;53.10;;;;;;5031119;28;20498;-73
2023/04/15 06:40:55;;;;;;;0.90;0.90;;;22.40;53.10;;;;;;5031262;28;20530;-73
2023/04/15 06:43:24;;;;;;;1.00;1.00;;;22.40;53.10;;;;;;5031075;28;20558;-72
2023/04/15 06:45:54;;;;;;;0.80;0.80;;;22.40;53.10;;;;;;5009470;28;20500;-72
2023/04/15 06:48:22;;;;;;;0.93;0.90;;;22.40;53.10;;;;;;5027067;28;20615;-72
2023/04/15 06:50:50;;;;;;;1.00;1.00;;;22.40;53.10;;;;;;5029620;28;20451;-73
2023/04/15 06:53:19;;;;;;;0.73;0.73;;;22.40;53.00;;;;;;5021203;28;20844;-73
2023/04/15 06:55:47;;;;;;;1.27;1.10;;;22.40;53.10;;;;;;5029907;28;20959;-73
2023/04/15 06:58:16;;;;;;;0.73;0.73;;;22.40;53.00;;;;;;5030303;28;20466;-74
2023/04/15 07:00:44;;;;;;;1.10;1.00;;;22.40;53.00;;;;;;5027591;28;20955;-74
2023/04/15 07:03:13;;;;;;;1.00;1.00;;;22.40;53.00;;;;;;5019169;28;20471;-74
2023/04/15 07:05:42;;;;;;;1.00;0.90;;;22.50;52.70;;;;;;5025038;28;20459;-74
2023/04/15 07:08:11;;;;;;;1.00;1.00;;;22.50;52.90;;;;;;5025051;28;20467;-75
2023/04/15 07:10:39;;;;;;;1.20;1.10;;;22.50;52.80;;;;;;5021248;28;20895;-74
2023/04/15 07:13:07;;;;;;;0.80;0.80;;;22.50;52.80;;;;;;5016143;28;20589;-74
2023/04/15 07:15:36;;;;;;;0.60;0.60;;;22.60;52.90;;;;;;5027909;28;20959;-75
2023/04/15 07:18:04;;;;;;;1.77;0.70;;;22.60;52.80;;;;;;5017138;28;21113;-74
2023/04/15 07:20:33;;;;;;;1.07;1.00;;;22.60;52.70;;;;;;5006410;28;20460;-74
2023/04/15 07:23:02;;;;;;;0.70;0.70;;;22.60;52.50;;;;;;5026901;28;20542;-74
2023/04/15 07:25:30;;;;;;;1.00;1.00;;;22.60;52.50;;;;;;5019807;28;20474;-74
2023/04/15 07:27:58;;;;;;;1.20;1.10;;;22.60;52.50;;;;;;5019057;28;20538;-72
2023/04/15 07:30:27;;;;;;;1.20;0.97;;;22.60;52.70;;;;;;5026807;28;20465;-73
2023/04/15 07:32:59;;;;;;;0.80;0.80;;;22.50;52.70;;;;;;5026413;28;20471;-74
2023/04/15 07:35:28;;;;;;;0.70;0.70;;;22.50;52.80;;;;;;5026121;28;20902;-73
2023/04/15 07:37:58;;;;;;;1.27;1.17;;;22.50;52.80;;;;;;5027893;28;20519;-72
2023/04/15 07:40:27;;;;;;;0.90;0.90;;;22.50;52.80;;;;;;5020199;28;21023;-73
2023/04/15 07:42:57;;;;;;;1.10;1.00;;;22.50;52.70;;;;;;5028560;28;20447;-73
2023/04/15 07:45:26;;;;;;;1.20;1.10;;;22.50;52.80;;;;;;5022436;28;20544;-72
2023/04/15 07:47:54;;;;;;;0.87;0.87;;;22.50;52.60;;;;;;5008828;28;20753;-73
2023/04/15 07:50:23;;;;;;;0.73;0.73;;;22.50;52.80;;;;;;5033411;28;20475;-76
2023/04/15 07:52:52;;;;;;;0.80;0.80;;;22.50;52.80;;;;;;5010729;28;20930;-74
2023/04/15 07:55:22;;;;;;;0.57;0.57;;;22.50;52.90;;;;;;5027897;28;20877;-74
2023/04/15 07:57:51;;;;;;;0.90;0.90;;;22.50;52.90;;;;;;5028584;28;20451;-80
2023/04/15 08:00:19;;;;;;;0.80;0.80;;;22.50;52.90;;;;;;5024834;28;20479;-77
2023/04/15 08:02:48;;;;;;;1.10;1.10;;;22.50;52.90;;;;;;5009654;28;21176;-73
2023/04/15 08:05:17;;;;;;;1.30;1.20;;;22.50;52.80;;;;;;5028724;28;20454;-77
2023/04/15 08:07:45;;;;;;;1.70;1.60;;;22.50;52.80;;;;;;5027584;28;20447;-77
2023/04/15 08:10:15;;;;;;;1.73;1.60;;;22.50;52.80;;;;;;5029898;28;20497;-75
2023/04/15 08:12:47;;;;;;;1.10;1.10;;;22.50;52.80;;;;;;5026006;28;21035;-75
2023/04/15 08:15:16;;;;;;;1.57;1.47;;;22.50;52.80;;;;;;5027100;28;20470;-78
2023/04/15 08:17:45;;;;;;;1.50;1.23;;;22.50;53.00;;;;;;5027135;28;21025;-78
2023/04/15 08:20:13;;;;;;;1.83;1.33;;;22.50;53.00;;;;;;5023312;28;21031;-76
2023/04/15 08:22:41;;;;;;;2.07;1.53;;;22.60;53.00;;;;;;5026832;28;20460;-78
2023/04/15 08:25:10;;;;;;;1.27;1.17;;;22.60;53.00;;;;;;5025926;28;20538;-79
2023/04/15 08:27:38;;;;;;;5.20;1.57;;;22.60;52.90;;;;;;5027737;28;20562;-75
2023/04/15 08:30:09;;;;;;;6.30;1.70;;;22.60;52.90;;;;;;5016220;28;20457;-76
2023/04/15 08:32:37;;;;;;;4.30;1.57;;;22.60;52.90;;;;;;5027904;28;20916;-79
2023/04/15 08:35:06;;;;;;;2.43;1.87;;;22.70;53.00;;;;;;5026791;28;20547;-79
2023/04/15 08:37:35;;;;;;;2.77;1.90;;;22.70;52.90;;;;;;5034007;28;20525;-80
2023/04/15 08:40:03;;;;;;;3.27;1.80;;;22.70;53.00;;;;;;5032719;28;20444;-81
2023/04/15 08:42:34;;;;;;;2.40;1.50;;;22.70;53.00;;;;;;5033909;28;20448;-74
2023/04/15 08:45:04;;;;;;;4.90;2.27;;;22.70;53.00;;;;;;5036140;28;20475;-79
2023/04/15 08:47:37;;;;;;;2.80;1.73;;;22.70;53.00;;;;;;5033836;28;20455;-81
2023/04/15 08:50:10;;;;;;;4.40;2.00;;;22.70;53.10;;;;;;5030467;28;20501;-79
2023/04/15 08:52:40;;;;;;;3.57;2.10;;;22.70;53.30;;;;;;5024569;28;20483;-78
2023/04/15 08:55:10;;;;;;;5.13;2.27;;;22.80;53.50;;;;;;5027382;28;20998;-79
2023/04/15 08:57:39;;;;;;;6.40;2.10;;;22.70;53.60;;;;;;5021523;28;20959;-81
2023/04/15 09:00:09;;;;;;;3.37;2.00;;;22.80;53.60;;;;;;5027225;28;20443;-88
2023/04/15 09:02:39;;;;;;;5.13;2.17;;;22.80;53.60;;;;;;5028659;28;20483;-86
2023/04/15 09:05:08;;;;;;;4.77;1.80;;;22.80;53.60;;;;;;5023841;28;20554;-81
2023/04/15 09:07:37;;;;;;;6.00;2.60;;;22.80;53.60;;;;;;5028394;28;20479;-80
2023/04/15 09:10:06;;;;;;;3.27;1.90;;;22.80;53.70;;;;;;5030481;28;20558;-80
2023/04/15 09:12:35;;;;;;;7.43;2.50;;;22.80;53.80;;;;;;5003486;28;20488;-78
2023/04/15 09:15:04;;;;;;;7.90;2.17;;;22.80;53.90;;;;;;5021925;28;20467;-77
2023/04/15 09:17:34;;;;;;;5.13;2.30;;;22.80;53.90;;;;;;5017231;28;20453;-74
2023/04/15 09:20:13;;;;;;;19.40;2.87;;;22.80;53.90;;;;;;5009726;28;20551;-78
2023/04/15 09:22:43;;;;;;;4.30;2.00;;;22.80;53.90;;;;;;5029296;28;21034;-76
2023/04/15 09:25:31;;;;;;;4.17;2.20;;;22.80;53.90;;;;;;5025815;28;20457;-76
2023/04/15 09:28:03;;;;;;;3.10;2.20;;;22.80;54.00;;;;;;5018603;28;20475;-75
2023/04/15 09:30:32;;;;;;;5.27;1.93;;;22.80;54.00;;;;;;5024191;28;20492;-75
2023/04/15 09:33:01;;;;;;;5.17;2.03;;;22.80;54.00;;;;;;5021589;28;20510;-75
2023/04/15 09:35:34;;;;;;;4.10;2.37;;;22.80;54.10;;;;;;5025035;28;20502;-76
2023/04/15 09:38:06;;;;;;;5.70;2.40;;;22.80;54.10;;;;;;5027689;28;20594;-74
2023/04/15 09:40:36;;;;;;;4.30;2.20;;;22.80;54.00;;;;;;5023795;28;20467;-77
2023/04/15 09:43:07;;;;;;;4.27;2.13;;;22.80;54.00;;;;;;5021179;28;20492;-74
2023/04/15 09:45:36;;;;;;;5.80;2.70;;;22.80;54.00;;;;;;5022584;28;20492;-75
2023/04/15 09:48:17;;;;;;;2.23;2.03;;;22.90;54.00;;;;;;5034430;28;20460;-75
2023/04/15 09:50:48;;;;;;;2.50;1.80;;;22.90;54.00;;;;;;5025005;28;21754;-73
2023/04/15 09:53:18;;;;;;;3.90;2.13;;;22.90;53.90;;;;;;5027428;28;20517;-71
2023/04/15 09:55:50;;;;;;;4.97;2.63;;;22.90;53.90;;;;;;5007786;28;21605;-72
2023/04/15 09:58:19;;;;;;;7.20;2.63;;;22.90;53.90;;;;;;5025516;28;20982;-73
2023/04/15 10:00:48;;;;;;;5.40;2.90;;;22.90;54.00;;;;;;5024224;28;20467;-73
2023/04/15 10:03:21;;;;;;;5.80;2.03;;;22.90;54.00;;;;;;5028120;28;20459;-73
2023/04/15 10:05:52;;;;;;;3.73;2.43;;;22.90;54.00;;;;;;5009480;28;20521;-73
2023/04/15 10:08:22;;;;;;;2.60;2.00;;;22.90;54.10;;;;;;5028661;28;20452;-74
2023/04/15 10:10:51;;;;;;;8.47;2.20;;;22.90;54.10;;;;;;5027079;28;20549;-77
2023/04/15 10:13:23;;;;;;;8.70;2.20;;;22.90;54.20;;;;;;5023083;28;20508;-77
2023/04/15 10:15:57;;;;;;;6.30;2.93;;;22.90;54.20;;;;;;5026062;28;20456;-77
2023/04/15 10:18:27;;;;;;;8.80;3.10;;;22.90;54.20;;;;;;5019297;28;20452;-77
2023/04/15 10:20:57;;;;;;;7.33;3.20;;;22.90;54.20;;;;;;5021793;28;20578;-77
2023/04/15 10:23:26;;;;;;;7.63;4.07;;;23.00;54.30;;;;;;4999141;28;20466;-76
2023/04/15 10:25:55;;;;;;;11.57;5.90;;;23.00;54.20;;;;;;5015173;28;20558;-76
2023/04/15 10:28:23;;;;;;;11.23;4.70;;;23.00;54.20;;;;;;5023910;28;20507;-73
2023/04/15 10:30:52;;;;;;;9.23;4.67;;;23.10;54.20;;;;;;5026348;28;20518;-78
2023/04/15 10:33:24;;;;;;;10.70;5.00;;;23.10;54.30;;;;;;5010370;28;20806;-79
2023/04/15 10:35:56;;;;;;;14.03;4.63;;;23.10;54.30;;;;;;5022050;28;20539;-78
2023/04/15 10:38:37;;;;;;;8.97;5.50;;;23.10;54.20;;;;;;5027000;28;20512;-77
2023/04/15 10:41:16;;;;;;;15.20;5.50;;;23.10;54.30;;;;;;5024352;28;20531;-78
2023/04/15 10:43:52;;;;;;;11.90;6.00;;;23.10;54.30;;;;;;5030368;28;20506;-80
2023/04/15 10:46:24;;;;;;;12.90;5.13;;;23.20;54.30;;;;;;5006916;28;20461;-75
2023/04/15 10:48:53;;;;;;;9.10;5.63;;;23.20;54.20;;;;;;5024146;28;20459;-75
2023/04/15 10:51:30;;;;;;;17.40;6.50;;;23.20;54.20;;;;;;5028433;28;20447;-76
2023/04/15 10:54:01;;;;;;;13.90;5.23;;;23.20;54.30;;;;;;5023008;28;20989;-74
2023/04/15 10:56:30;;;;;;;15.57;6.77;;;23.20;54.40;;;;;;5014405;28;20453;-74
2023/04/15 10:59:00;;;;;;;12.73;5.63;;;23.20;54.50;;;;;;5022324;28;20569;-73
2023/04/15 11:01:51;;;;;;;11.40;4.83;;;23.30;54.40;;;;;;5026181;28;20467;-73
2023/04/15 11:04:52;;;;;;;11.20;5.47;;;23.30;54.30;;;;;;5021321;28;20500;-76
2023/04/15 11:07:36;;;;;;;12.53;5.93;;;23.30;54.20;;;;;;5023935;28;20454;-76
2023/04/15 11:10:50;;;;;;;9.90;3.87;;;23.30;54.20;;;;;;5026472;28;20503;-76
2023/04/15 11:13:21;;;;;;;11.43;5.03;;;23.30;54.10;;;;;;5015832;28;20460;-76
2023/04/15 11:15:50;;;;;;;11.77;5.20;;;23.30;54.10;;;;;;5008312;28;20633;-74
2023/04/15 11:18:21;;;;;;;8.17;5.73;;;23.40;54.10;;;;;;5028032;28;20979;-75
2023/04/15 11:20:51;;;;;;;9.70;4.57;;;23.40;54.10;;;;;;5029836;28;20997;-75
2023/04/15 11:23:26;;;;;;;8.37;4.83;;;23.40;54.10;;;;;;5022877;28;20814;-72
2023/04/15 11:25:58;;;;;;;10.03;4.53;;;23.40;54.10;;;;;;5018619;28;20454;-74
2023/04/15 11:28:27;;;;;;;6.50;3.30;;;23.40;54.10;;;;;;5028396;28;20460;-75
2023/04/15 11:30:56;;;;;;;8.00;3.60;;;23.40;54.10;;;;;;5025816;28;20442;-75
2023/04/15 11:33:25;;;;;;;10.50;4.00;;;23.40;54.00;;;;;;5027630;28;20487;-75
2023/04/15 11:35:54;;;;;;;8.27;4.43;;;23.40;54.00;;;;;;5030336;28;20473;-76
2023/04/15 11:38:23;;;;;;;7.67;4.47;;;23.40;54.00;;;;;;5030166;28;20499;-75
2023/04/15 11:40:52;;;;;;;8.93;3.30;;;23.40;53.90;;;;;;5027771;28;20544;-75
2023/04/15 11:43:23;;;;;;;9.20;4.60;;;23.40;53.90;;;;;;5010850;28;20490;-75
2023/04/15 11:45:54;;;;;;;5.73;3.20;;;23.40;53.90;;;;;;5022793;28;20890;-76
2023/04/15 11:48:24;;;;;;;4.03;3.33;;;23.30;53.90;;;;;;5019290;28;20445;-74
2023/04/15 11:50:57;;;;;;;5.30;3.30;;;23.30;53.90;;;;;;5024679;28;20464;-76
2023/04/15 11:53:37;;;;;;;7.13;3.43;;;23.30;53.90;;;;;;4998228;28;20475;-74
2023/04/15 11:56:08;;;;;;;7.67;3.37;;;23.30;54.00;;;;;;5026912;28;20473;-74
2023/04/15 11:58:39;;;;;;;9.20;4.00;;;23.30;54.00;;;;;;5023360;28;20495;-72
2023/04/15 12:01:08;;;;;;;5.80;3.80;;;23.20;54.00;;;;;;5026553;28;20612;-72
2023/04/15 12:03:39;;;;;;;8.47;3.23;;;23.20;54.00;;;;;;5023022;28;20459;-74
2023/04/15 12:06:17;;;;;;;7.73;3.40;;;23.20;54.10;;;;;;5027111;28;20959;-74
2023/04/15 12:08:51;;;;;;;7.07;3.80;;;23.20;54.10;;;;;;5028911;28;20487;-74
2023/04/15 12:11:21;;;;;;;8.87;3.73;;;23.30;54.10;;;;;;5024129;28;20459;-74
2023/04/15 12:13:53;;;;;;;9.00;3.57;;;23.30;54.00;;;;;;5027273;28;20573;-74
2023/04/15 12:16:22;;;;;;;10.37;3.27;;;23.30;54.00;;;;;;5008693;28;21054;-73
2023/04/15 12:18:54;;;;;;;5.80;3.37;;;23.30;54.00;;;;;;5023594;28;20517;-74
2023/04/15 12:21:24;;;;;;;5.80;3.70;;;23.30;54.00;;;;;;5019467;28;20831;-76
2023/04/15 12:23:53;;;;;;;5.20;3.33;;;23.40;54.70;;;;;;5029180;28;20457;-74
2023/04/15 12:26:27;;;;;;;8.03;3.63;;;23.40;54.70;;;;;;5030050;28;20465;-75
2023/04/15 12:29:00;;;;;;;8.80;3.73;;;23.40;54.50;;;;;;5029194;28;20465;-73
2023/04/15 12:31:29;;;;;;;14.37;5.10;;;23.30;55.00;;;;;;5016306;28;20526;-76
2023/04/15 12:33:59;;;;;;;8.80;4.70;;;23.40;55.60;;;;;;5021946;28;20514;-73
2023/04/15 12:36:34;;;;;;;12.53;3.97;;;23.40;56.20;;;;;;5014644;28;20547;-75
2023/04/15 12:39:05;;;;;;;10.03;3.50;;;23.30;56.30;;;;;;5025642;28;20814;-76
2023/04/15 12:41:33;;;;;;;7.00;3.50;;;23.30;56.10;;;;;;5026262;28;20448;-76
2023/04/15 12:44:04;;;;;;;10.53;4.13;;;23.40;55.90;;;;;;5043985;28;20438;-77
2023/04/15 12:46:33;;;;;;;8.50;3.93;;;23.30;55.80;;;;;;5021416;28;20456;-76
2023/04/15 12:49:02;;;;;;;10.37;3.70;;;23.40;55.70;;;;;;5026888;28;20550;-76
2023/04/15 12:51:31;;;;;;;6.07;3.87;;;23.30;55.60;;;;;;5031634;28;20445;-76
2023/04/15 12:53:59;;;;;;;6.27;2.93;;;23.30;55.50;;;;;;5031449;28;20448;-75
2023/04/15 12:56:28;;;;;;;6.10;3.50;;;23.30;55.40;;;;;;5031494;28;20610;-77
2023/04/15 12:58:56;;;;;;;8.70;3.63;;;23.30;55.50;;;;;;5030517;28;20451;-76